createdAt,value
2017-12-05T17:34:24.430Z,32.70
2017-12-05T17:36:53.341Z,33.83
2017-12-05T17:39:31.651Z,28.93
2017-12-05T17:41:59.739Z,31.83
2017-12-05T17:44:27.844Z,29.77
2017-12-05T17:46:55.948Z,30.00
2017-12-05T17:49:24.815Z,27.70
2017-12-05T17:51:52.910Z,28.62
2017-12-05T17:54:20.990Z,27.65
2017-12-05T17:56:49.084Z,27.33
2017-12-05T17:59:17.181Z,26.40
2017-12-05T18:01:45.293Z,26.80
2017-12-05T18:04:14.139Z,27.33
2017-12-05T18:06:42.237Z,28.15
2017-12-05T18:09:11.087Z,26.08
2017-12-05T18:11:39.183Z,26.27
2017-12-05T18:14:07.281Z,25.73
2017-12-05T18:16:36.131Z,28.33
2017-12-05T18:19:04.482Z,26.77
2017-12-05T18:21:32.586Z,28.15
2017-12-05T18:24:00.685Z,24.67
2017-12-05T18:26:28.803Z,25.85
2017-12-05T18:28:56.891Z,25.20
2017-12-05T18:31:24.995Z,24.10
2017-12-05T18:33:53.842Z,25.20
2017-12-05T18:36:21.939Z,25.67
2017-12-05T18:38:50.804Z,26.05
2017-12-05T18:41:18.895Z,26.98
2017-12-05T18:43:47.755Z,28.90
2017-12-05T18:46:15.844Z,29.05
2017-12-05T18:48:43.931Z,27.90
2017-12-05T18:51:12.788Z,28.53
2017-12-05T18:53:40.882Z,26.95
2017-12-05T18:56:08.968Z,28.00
2017-12-05T18:58:37.852Z,28.40
2017-12-05T19:01:06.714Z,27.60
2017-12-05T19:03:34.816Z,27.10
2017-12-05T19:06:03.671Z,27.02
2017-12-05T19:08:31.772Z,29.40
2017-12-05T19:11:00.650Z,29.30
2017-12-05T19:13:29.531Z,28.23
2017-12-05T19:15:57.631Z,26.33
2017-12-05T19:18:25.723Z,27.30
2017-12-05T19:20:53.816Z,28.45
2017-12-05T19:23:21.927Z,27.10
2017-12-05T19:25:50.774Z,26.65
2017-12-05T19:28:18.882Z,26.25
2017-12-05T19:30:46.958Z,26.30
2017-12-05T19:33:15.827Z,26.30
2017-12-05T19:35:43.928Z,27.87
2017-12-05T19:38:12.079Z,29.20
2017-12-05T19:40:40.165Z,28.00
2017-12-05T19:43:09.031Z,25.52
2017-12-05T19:45:37.136Z,27.40
2017-12-05T19:48:05.232Z,27.35
2017-12-05T19:50:33.352Z,25.25
2017-12-05T19:53:01.439Z,25.60
2017-12-05T19:55:30.290Z,29.35
2017-12-05T19:57:58.383Z,29.98
2017-12-05T20:00:26.471Z,25.43
2017-12-05T20:02:54.560Z,33.50
2017-12-05T20:05:22.665Z,25.77
2017-12-05T20:07:50.760Z,26.75
2017-12-05T20:10:18.847Z,26.00
2017-12-05T20:12:47.696Z,25.02
2017-12-05T20:15:15.786Z,26.07
2017-12-05T20:17:43.879Z,24.12
2017-12-05T20:20:12.752Z,24.95
2017-12-05T20:22:41.623Z,24.15
2017-12-05T20:25:09.726Z,25.30
2017-12-05T20:27:37.819Z,25.10
2017-12-05T20:30:05.907Z,25.10
2017-12-05T20:32:34.016Z,25.67
2017-12-05T20:35:02.103Z,27.00
2017-12-05T20:37:30.958Z,27.35
2017-12-05T20:39:59.063Z,24.63
2017-12-05T20:42:27.919Z,26.52
2017-12-05T20:44:56.015Z,26.10
2017-12-05T20:47:24.888Z,24.33
2017-12-05T20:49:52.979Z,27.52
2017-12-05T20:52:21.873Z,24.73
2017-12-05T20:54:49.930Z,25.73
2017-12-05T20:57:18.806Z,24.95
2017-12-05T20:59:47.202Z,24.12
2017-12-05T21:02:15.275Z,26.00
2017-12-05T21:04:44.144Z,25.50
2017-12-05T21:07:12.232Z,25.65
2017-12-05T21:09:41.092Z,24.30
2017-12-05T21:12:09.183Z,25.77
2017-12-05T21:14:38.043Z,27.30
2017-12-05T21:17:06.136Z,26.95
2017-12-05T21:19:34.224Z,26.35
2017-12-05T21:22:03.088Z,26.27
2017-12-05T21:24:31.184Z,27.20
2017-12-05T21:27:00.053Z,25.98
2017-12-05T21:29:28.156Z,24.58
2017-12-05T21:31:56.268Z,26.58
2017-12-05T21:34:24.364Z,27.58
2017-12-05T21:36:52.472Z,27.65
2017-12-05T21:39:20.575Z,28.77
2017-12-05T21:41:48.659Z,27.23
2017-12-05T21:44:16.764Z,24.73
2017-12-05T21:46:45.620Z,26.48
2017-12-05T21:49:13.720Z,23.27
2017-12-05T21:51:42.586Z,26.05
2017-12-05T21:54:10.675Z,26.90
2017-12-05T21:56:39.532Z,26.48
2017-12-05T21:59:07.634Z,28.23
2017-12-05T22:01:36.502Z,25.17
2017-12-05T22:04:04.603Z,26.65
2017-12-05T22:06:33.463Z,25.12
2017-12-05T22:09:01.568Z,23.55
2017-12-05T22:11:30.415Z,24.87
2017-12-05T22:13:58.520Z,22.57
2017-12-05T22:16:27.375Z,24.60
2017-12-05T22:18:55.467Z,23.00
2017-12-05T22:21:24.327Z,25.25
2017-12-05T22:23:52.419Z,24.90
2017-12-05T22:26:20.512Z,24.10
2017-12-05T22:28:49.367Z,25.10
2017-12-05T22:31:17.493Z,24.63
2017-12-05T22:33:45.598Z,23.70
2017-12-05T22:36:13.716Z,24.10
2017-12-05T22:38:42.571Z,23.13
2017-12-05T22:41:10.702Z,27.15
2017-12-05T22:43:38.794Z,23.47
2017-12-05T22:46:07.642Z,24.63
2017-12-05T22:48:35.728Z,22.85
2017-12-05T22:51:03.841Z,24.85
2017-12-05T22:53:32.696Z,23.12
2017-12-05T22:56:00.783Z,24.12
2017-12-05T22:58:28.878Z,25.37
2017-12-05T23:00:57.795Z,27.33
2017-12-05T23:03:25.934Z,25.40
2017-12-05T23:05:54.803Z,28.10
2017-12-05T23:08:22.945Z,23.85
2017-12-05T23:10:51.020Z,25.10
2017-12-05T23:13:19.115Z,23.85
2017-12-05T23:15:47.199Z,24.20
2017-12-05T23:18:16.055Z,24.33
2017-12-05T23:20:44.182Z,24.60
2017-12-05T23:23:12.287Z,25.60
2017-12-05T23:25:40.367Z,24.67
2017-12-05T23:28:08.588Z,25.85
2017-12-05T23:30:36.761Z,24.37
2017-12-05T23:33:04.877Z,24.00
2017-12-05T23:35:32.960Z,22.57
2017-12-05T23:38:01.821Z,23.40
2017-12-05T23:40:29.911Z,22.75
2017-12-05T23:42:58.000Z,22.62
2017-12-05T23:45:26.860Z,23.20
2017-12-05T23:47:54.958Z,24.00
2017-12-05T23:50:23.815Z,24.17
2017-12-05T23:52:51.903Z,23.53
2017-12-05T23:55:20.003Z,20.73
2017-12-05T23:57:48.094Z,23.17
